sensor_id;sensor_type;location;lat;lon;timestamp;P1;durP1;ratioP1;P2;durP2;ratioP2
42682;SDS011;28293;50.930;3.464;2023-04-24T00:01:28;24.08;;;17.67;;
42682;SDS011;28293;50.930;3.464;2023-04-24T00:03:54;29.13;;;17.10;;
42682;SDS011;28293;50.930;3.464;2023-04-24T00:06:24;23.27;;;16.48;;
42682;SDS011;28293;50.930;3.464;2023-04-24T00:08:57;24.50;;;16.38;;
42682;SDS011;28293;50.930;3.464;2023-04-24T00:11:26;19.85;;;15.00;;
42682;SDS011;28293;50.930;3.464;2023-04-24T00:13:52;19.15;;;13.70;;
42682;SDS011;28293;50.930;3.464;2023-04-24T00:16:18;15.85;;;12.82;;
42682;SDS011;28293;50.930;3.464;2023-04-24T00:18:44;16.00;;;12.25;;
42682;SDS011;28293;50.930;3.464;2023-04-24T00:21:10;16.17;;;10.48;;
42682;SDS011;28293;50.930;3.464;2023-04-24T00:23:36;14.65;;;10.70;;
42682;SDS011;28293;50.930;3.464;2023-04-24T00:26:02;13.18;;;9.80;;
42682;SDS011;28293;50.930;3.464;2023-04-24T00:28:27;11.90;;;9.52;;
42682;SDS011;28293;50.930;3.464;2023-04-24T00:30:53;12.40;;;9.75;;
42682;SDS011;28293;50.930;3.464;2023-04-24T00:33:19;14.35;;;9.68;;
42682;SDS011;28293;50.930;3.464;2023-04-24T00:35:45;12.77;;;9.15;;
42682;SDS011;28293;50.930;3.464;2023-04-24T00:38:11;11.85;;;9.55;;
42682;SDS011;28293;50.930;3.464;2023-04-24T00:40:36;12.88;;;9.70;;
42682;SDS011;28293;50.930;3.464;2023-04-24T00:43:02;11.20;;;8.98;;
42682;SDS011;28293;50.930;3.464;2023-04-24T00:45:28;10.88;;;8.90;;
42682;SDS011;28293;50.930;3.464;2023-04-24T00:47:56;11.55;;;8.35;;
42682;SDS011;28293;50.930;3.464;2023-04-24T00:50:23;11.13;;;8.63;;
42682;SDS011;28293;50.930;3.464;2023-04-24T00:52:49;12.00;;;8.98;;
42682;SDS011;28293;50.930;3.464;2023-04-24T00:55:15;12.60;;;8.82;;
42682;SDS011;28293;50.930;3.464;2023-04-24T00:57:41;11.88;;;8.77;;
42682;SDS011;28293;50.930;3.464;2023-04-24T01:00:08;13.38;;;9.15;;
42682;SDS011;28293;50.930;3.464;2023-04-24T01:02:38;12.48;;;9.50;;
42682;SDS011;28293;50.930;3.464;2023-04-24T01:05:08;13.48;;;10.27;;
42682;SDS011;28293;50.930;3.464;2023-04-24T01:07:34;14.95;;;10.68;;
42682;SDS011;28293;50.930;3.464;2023-04-24T01:10:01;14.25;;;10.00;;
42682;SDS011;28293;50.930;3.464;2023-04-24T01:12:27;14.63;;;10.60;;
42682;SDS011;28293;50.930;3.464;2023-04-24T01:14:53;15.70;;;11.93;;
42682;SDS011;28293;50.930;3.464;2023-04-24T01:17:19;14.85;;;11.63;;
42682;SDS011;28293;50.930;3.464;2023-04-24T01:19:46;16.67;;;12.70;;
42682;SDS011;28293;50.930;3.464;2023-04-24T01:22:15;15.93;;;12.35;;
42682;SDS011;28293;50.930;3.464;2023-04-24T01:24:41;16.95;;;12.73;;
42682;SDS011;28293;50.930;3.464;2023-04-24T01:27:08;17.67;;;13.25;;
42682;SDS011;28293;50.930;3.464;2023-04-24T01:29:35;17.20;;;14.38;;
42682;SDS011;28293;50.930;3.464;2023-04-24T01:32:02;22.05;;;15.45;;
42682;SDS011;28293;50.930;3.464;2023-04-24T01:34:28;21.23;;;16.00;;
42682;SDS011;28293;50.930;3.464;2023-04-24T01:36:54;23.75;;;17.48;;
42682;SDS011;28293;50.930;3.464;2023-04-24T01:39:21;20.52;;;17.60;;
42682;SDS011;28293;50.930;3.464;2023-04-24T01:41:50;24.75;;;18.52;;
42682;SDS011;28293;50.930;3.464;2023-04-24T01:44:17;22.42;;;17.98;;
42682;SDS011;28293;50.930;3.464;2023-04-24T01:46:43;24.65;;;19.05;;
42682;SDS011;28293;50.930;3.464;2023-04-24T01:49:09;23.85;;;19.27;;
42682;SDS011;28293;50.930;3.464;2023-04-24T01:51:35;22.95;;;18.33;;
42682;SDS011;28293;50.930;3.464;2023-04-24T01:54:01;23.48;;;18.60;;
42682;SDS011;28293;50.930;3.464;2023-04-24T01:56:28;22.55;;;17.45;;
42682;SDS011;28293;50.930;3.464;2023-04-24T01:58:55;25.70;;;19.05;;
42682;SDS011;28293;50.930;3.464;2023-04-24T02:01:23;25.38;;;18.58;;
42682;SDS011;28293;50.930;3.464;2023-04-24T02:03:49;26.10;;;18.77;;
42682;SDS011;28293;50.930;3.464;2023-04-24T02:06:15;22.90;;;19.48;;
42682;SDS011;28293;50.930;3.464;2023-04-24T02:08:41;30.35;;;19.77;;
42682;SDS011;28293;50.930;3.464;2023-04-24T02:11:08;28.98;;;20.45;;
42682;SDS011;28293;50.930;3.464;2023-04-24T02:13:34;28.33;;;19.58;;
42682;SDS011;28293;50.930;3.464;2023-04-24T02:16:00;28.75;;;20.42;;
42682;SDS011;28293;50.930;3.464;2023-04-24T02:18:26;27.67;;;20.90;;
42682;SDS011;28293;50.930;3.464;2023-04-24T02:20:52;29.85;;;21.65;;
42682;SDS011;28293;50.930;3.464;2023-04-24T02:23:18;23.90;;;20.45;;
42682;SDS011;28293;50.930;3.464;2023-04-24T02:25:44;28.10;;;21.95;;
42682;SDS011;28293;50.930;3.464;2023-04-24T02:28:10;25.65;;;19.05;;
42682;SDS011;28293;50.930;3.464;2023-04-24T02:30:36;20.92;;;16.15;;
42682;SDS011;28293;50.930;3.464;2023-04-24T02:33:02;24.95;;;15.50;;
42682;SDS011;28293;50.930;3.464;2023-04-24T02:35:28;23.48;;;15.27;;
42682;SDS011;28293;50.930;3.464;2023-04-24T02:37:54;19.17;;;13.38;;
42682;SDS011;28293;50.930;3.464;2023-04-24T02:40:19;18.52;;;11.70;;
42682;SDS011;28293;50.930;3.464;2023-04-24T02:42:45;16.42;;;10.60;;
42682;SDS011;28293;50.930;3.464;2023-04-24T02:45:11;14.23;;;10.15;;
42682;SDS011;28293;50.930;3.464;2023-04-24T02:47:36;15.45;;;10.18;;
42682;SDS011;28293;50.930;3.464;2023-04-24T02:50:02;15.55;;;9.82;;
42682;SDS011;28293;50.930;3.464;2023-04-24T02:52:31;14.80;;;9.05;;
42682;SDS011;28293;50.930;3.464;2023-04-24T02:54:57;14.35;;;8.63;;
42682;SDS011;28293;50.930;3.464;2023-04-24T02:57:23;16.85;;;9.20;;
42682;SDS011;28293;50.930;3.464;2023-04-24T02:59:48;17.15;;;10.70;;
42682;SDS011;28293;50.930;3.464;2023-04-24T03:02:14;15.40;;;10.07;;
42682;SDS011;28293;50.930;3.464;2023-04-24T03:04:40;16.25;;;10.77;;
42682;SDS011;28293;50.930;3.464;2023-04-24T03:07:09;16.63;;;10.32;;
42682;SDS011;28293;50.930;3.464;2023-04-24T03:09:34;18.98;;;10.57;;
42682;SDS011;28293;50.930;3.464;2023-04-24T03:12:00;17.98;;;11.95;;
42682;SDS011;28293;50.930;3.464;2023-04-24T03:14:26;18.15;;;11.05;;
42682;SDS011;28293;50.930;3.464;2023-04-24T03:16:52;16.48;;;10.48;;
42682;SDS011;28293;50.930;3.464;2023-04-24T03:19:17;18.70;;;11.93;;
42682;SDS011;28293;50.930;3.464;2023-04-24T03:21:43;21.00;;;12.38;;
42682;SDS011;28293;50.930;3.464;2023-04-24T03:24:09;18.70;;;12.50;;
42682;SDS011;28293;50.930;3.464;2023-04-24T03:26:34;17.95;;;12.93;;
42682;SDS011;28293;50.930;3.464;2023-04-24T03:29:00;19.80;;;14.23;;
42682;SDS011;28293;50.930;3.464;2023-04-24T03:31:26;20.00;;;14.80;;
42682;SDS011;28293;50.930;3.464;2023-04-24T03:33:52;25.65;;;14.55;;
42682;SDS011;28293;50.930;3.464;2023-04-24T03:36:18;24.00;;;16.42;;
42682;SDS011;28293;50.930;3.464;2023-04-24T03:38:44;24.80;;;17.23;;
42682;SDS011;28293;50.930;3.464;2023-04-24T03:41:10;34.08;;;19.60;;
42682;SDS011;28293;50.930;3.464;2023-04-24T03:43:36;28.60;;;19.33;;
42682;SDS011;28293;50.930;3.464;2023-04-24T03:46:03;27.42;;;19.88;;
42682;SDS011;28293;50.930;3.464;2023-04-24T03:48:28;30.90;;;19.90;;
42682;SDS011;28293;50.930;3.464;2023-04-24T03:50:54;29.83;;;19.92;;
42682;SDS011;28293;50.930;3.464;2023-04-24T03:53:20;28.65;;;20.17;;
42682;SDS011;28293;50.930;3.464;2023-04-24T03:55:46;27.80;;;20.27;;
42682;SDS011;28293;50.930;3.464;2023-04-24T03:58:11;34.25;;;19.55;;
42682;SDS011;28293;50.930;3.464;2023-04-24T04:00:39;32.22;;;20.25;;
42682;SDS011;28293;50.930;3.464;2023-04-24T04:03:05;30.92;;;18.90;;
42682;SDS011;28293;50.930;3.464;2023-04-24T04:05:31;32.03;;;19.30;;
42682;SDS011;28293;50.930;3.464;2023-04-24T04:07:56;26.30;;;18.00;;
42682;SDS011;28293;50.930;3.464;2023-04-24T04:10:22;32.15;;;19.13;;
42682;SDS011;28293;50.930;3.464;2023-04-24T04:12:48;27.42;;;17.90;;
42682;SDS011;28293;50.930;3.464;2023-04-24T04:15:14;30.05;;;18.00;;
42682;SDS011;28293;50.930;3.464;2023-04-24T04:17:40;28.25;;;18.02;;
42682;SDS011;28293;50.930;3.464;2023-04-24T04:20:06;32.05;;;19.65;;
42682;SDS011;28293;50.930;3.464;2023-04-24T04:22:36;24.48;;;17.20;;
42682;SDS011;28293;50.930;3.464;2023-04-24T04:25:02;28.70;;;17.27;;
42682;SDS011;28293;50.930;3.464;2023-04-24T04:27:28;28.60;;;17.13;;
42682;SDS011;28293;50.930;3.464;2023-04-24T04:29:57;25.65;;;17.88;;
42682;SDS011;28293;50.930;3.464;2023-04-24T04:32:29;25.75;;;17.00;;
42682;SDS011;28293;50.930;3.464;2023-04-24T04:34:58;23.65;;;16.95;;
42682;SDS011;28293;50.930;3.464;2023-04-24T04:37:37;27.67;;;16.38;;
42682;SDS011;28293;50.930;3.464;2023-04-24T04:40:03;26.02;;;16.30;;
42682;SDS011;28293;50.930;3.464;2023-04-24T04:42:32;27.33;;;16.35;;
42682;SDS011;28293;50.930;3.464;2023-04-24T04:45:05;27.35;;;16.15;;
42682;SDS011;28293;50.930;3.464;2023-04-24T04:47:33;25.10;;;17.65;;
42682;SDS011;28293;50.930;3.464;2023-04-24T04:49:59;24.85;;;15.82;;
42682;SDS011;28293;50.930;3.464;2023-04-24T04:52:25;23.10;;;15.90;;
42682;SDS011;28293;50.930;3.464;2023-04-24T04:54:51;23.73;;;14.73;;
42682;SDS011;28293;50.930;3.464;2023-04-24T04:57:17;27.75;;;16.90;;
42682;SDS011;28293;50.930;3.464;2023-04-24T04:59:43;23.55;;;15.43;;
42682;SDS011;28293;50.930;3.464;2023-04-24T05:02:08;25.73;;;16.02;;
42682;SDS011;28293;50.930;3.464;2023-04-24T05:04:34;23.73;;;15.98;;
42682;SDS011;28293;50.930;3.464;2023-04-24T05:07:00;24.83;;;16.30;;
42682;SDS011;28293;50.930;3.464;2023-04-24T05:09:26;26.20;;;16.52;;
42682;SDS011;28293;50.930;3.464;2023-04-24T05:11:53;31.33;;;19.15;;
42682;SDS011;28293;50.930;3.464;2023-04-24T05:14:20;25.25;;;17.73;;
42682;SDS011;28293;50.930;3.464;2023-04-24T05:16:46;32.10;;;18.13;;
42682;SDS011;28293;50.930;3.464;2023-04-24T05:19:11;31.92;;;19.55;;
42682;SDS011;28293;50.930;3.464;2023-04-24T05:21:39;29.88;;;20.58;;
42682;SDS011;28293;50.930;3.464;2023-04-24T05:24:05;30.00;;;21.05;;
42682;SDS011;28293;50.930;3.464;2023-04-24T05:26:31;36.70;;;21.17;;
42682;SDS011;28293;50.930;3.464;2023-04-24T05:28:56;33.30;;;21.25;;
42682;SDS011;28293;50.930;3.464;2023-04-24T05:31:22;34.13;;;22.17;;
42682;SDS011;28293;50.930;3.464;2023-04-24T05:33:48;36.03;;;22.67;;
42682;SDS011;28293;50.930;3.464;2023-04-24T05:36:13;36.88;;;21.92;;
42682;SDS011;28293;50.930;3.464;2023-04-24T05:38:39;35.20;;;22.15;;
42682;SDS011;28293;50.930;3.464;2023-04-24T05:41:05;38.65;;;22.45;;
42682;SDS011;28293;50.930;3.464;2023-04-24T05:43:31;41.10;;;22.63;;
42682;SDS011;28293;50.930;3.464;2023-04-24T05:45:57;34.33;;;21.80;;
42682;SDS011;28293;50.930;3.464;2023-04-24T05:48:22;33.60;;;21.33;;
42682;SDS011;28293;50.930;3.464;2023-04-24T05:50:48;33.88;;;21.02;;
42682;SDS011;28293;50.930;3.464;2023-04-24T05:53:14;33.55;;;20.75;;
42682;SDS011;28293;50.930;3.464;2023-04-24T05:55:40;34.22;;;20.67;;
42682;SDS011;28293;50.930;3.464;2023-04-24T05:58:06;32.30;;;22.13;;
42682;SDS011;28293;50.930;3.464;2023-04-24T06:00:31;31.30;;;20.08;;
42682;SDS011;28293;50.930;3.464;2023-04-24T06:02:59;34.25;;;21.58;;
42682;SDS011;28293;50.930;3.464;2023-04-24T06:05:25;31.05;;;21.70;;
42682;SDS011;28293;50.930;3.464;2023-04-24T06:07:51;31.20;;;20.30;;
42682;SDS011;28293;50.930;3.464;2023-04-24T06:10:17;35.47;;;21.00;;
42682;SDS011;28293;50.930;3.464;2023-04-24T06:12:43;33.13;;;19.88;;
42682;SDS011;28293;50.930;3.464;2023-04-24T06:15:08;30.38;;;19.38;;
42682;SDS011;28293;50.930;3.464;2023-04-24T06:17:35;29.27;;;18.40;;
42682;SDS011;28293;50.930;3.464;2023-04-24T06:20:01;29.73;;;18.20;;
42682;SDS011;28293;50.930;3.464;2023-04-24T06:22:29;31.08;;;19.98;;
42682;SDS011;28293;50.930;3.464;2023-04-24T06:24:55;33.85;;;18.90;;
42682;SDS011;28293;50.930;3.464;2023-04-24T06:27:20;24.75;;;16.02;;
42682;SDS011;28293;50.930;3.464;2023-04-24T06:29:46;25.65;;;17.10;;
42682;SDS011;28293;50.930;3.464;2023-04-24T06:32:19;29.98;;;17.65;;
42682;SDS011;28293;50.930;3.464;2023-04-24T06:34:46;29.25;;;15.93;;
42682;SDS011;28293;50.930;3.464;2023-04-24T06:37:12;24.85;;;14.65;;
42682;SDS011;28293;50.930;3.464;2023-04-24T06:39:37;26.33;;;16.27;;
42682;SDS011;28293;50.930;3.464;2023-04-24T06:42:03;28.30;;;16.27;;
42682;SDS011;28293;50.930;3.464;2023-04-24T06:44:28;25.10;;;15.07;;
42682;SDS011;28293;50.930;3.464;2023-04-24T06:46:54;27.20;;;14.05;;
42682;SDS011;28293;50.930;3.464;2023-04-24T06:49:20;26.15;;;14.02;;
42682;SDS011;28293;50.930;3.464;2023-04-24T06:51:45;30.30;;;14.88;;
42682;SDS011;28293;50.930;3.464;2023-04-24T06:54:11;24.60;;;13.60;;
42682;SDS011;28293;50.930;3.464;2023-04-24T06:56:37;23.42;;;14.65;;
42682;SDS011;28293;50.930;3.464;2023-04-24T06:59:03;22.65;;;13.43;;
42682;SDS011;28293;50.930;3.464;2023-04-24T07:01:29;26.52;;;14.57;;
42682;SDS011;28293;50.930;3.464;2023-04-24T07:03:54;24.60;;;13.57;;
42682;SDS011;28293;50.930;3.464;2023-04-24T07:06:20;21.65;;;13.45;;
42682;SDS011;28293;50.930;3.464;2023-04-24T07:08:47;23.15;;;12.20;;
42682;SDS011;28293;50.930;3.464;2023-04-24T07:11:13;19.80;;;12.25;;
42682;SDS011;28293;50.930;3.464;2023-04-24T07:13:39;20.95;;;11.48;;
42682;SDS011;28293;50.930;3.464;2023-04-24T07:16:06;21.77;;;11.35;;
42682;SDS011;28293;50.930;3.464;2023-04-24T07:18:33;23.63;;;12.68;;
42682;SDS011;28293;50.930;3.464;2023-04-24T07:20:59;23.60;;;12.80;;
42682;SDS011;28293;50.930;3.464;2023-04-24T07:23:25;20.30;;;10.60;;
42682;SDS011;28293;50.930;3.464;2023-04-24T07:25:51;20.15;;;9.70;;
42682;SDS011;28293;50.930;3.464;2023-04-24T07:28:17;18.65;;;9.85;;
42682;SDS011;28293;50.930;3.464;2023-04-24T07:30:43;21.45;;;9.68;;
42682;SDS011;28293;50.930;3.464;2023-04-24T07:33:08;15.77;;;8.73;;
42682;SDS011;28293;50.930;3.464;2023-04-24T07:35:36;17.42;;;8.15;;
42682;SDS011;28293;50.930;3.464;2023-04-24T07:38:02;17.38;;;9.55;;
42682;SDS011;28293;50.930;3.464;2023-04-24T07:40:27;19.75;;;8.75;;
42682;SDS011;28293;50.930;3.464;2023-04-24T07:42:53;18.98;;;8.85;;
42682;SDS011;28293;50.930;3.464;2023-04-24T07:45:18;15.55;;;8.10;;
42682;SDS011;28293;50.930;3.464;2023-04-24T07:47:44;15.00;;;7.63;;
42682;SDS011;28293;50.930;3.464;2023-04-24T07:50:10;18.98;;;7.60;;
42682;SDS011;28293;50.930;3.464;2023-04-24T07:52:37;15.20;;;7.22;;
42682;SDS011;28293;50.930;3.464;2023-04-24T07:55:03;13.55;;;7.20;;
42682;SDS011;28293;50.930;3.464;2023-04-24T07:57:29;13.00;;;6.85;;
42682;SDS011;28293;50.930;3.464;2023-04-24T07:59:55;18.55;;;7.07;;
42682;SDS011;28293;50.930;3.464;2023-04-24T08:02:21;16.40;;;7.38;;
42682;SDS011;28293;50.930;3.464;2023-04-24T08:04:51;18.05;;;7.88;;
42682;SDS011;28293;50.930;3.464;2023-04-24T08:07:18;19.40;;;7.70;;
42682;SDS011;28293;50.930;3.464;2023-04-24T08:09:44;17.75;;;7.35;;
42682;SDS011;28293;50.930;3.464;2023-04-24T08:12:10;16.58;;;7.63;;
42682;SDS011;28293;50.930;3.464;2023-04-24T08:14:35;15.43;;;7.40;;
42682;SDS011;28293;50.930;3.464;2023-04-24T08:17:01;15.65;;;7.95;;
42682;SDS011;28293;50.930;3.464;2023-04-24T08:19:27;14.27;;;7.78;;
42682;SDS011;28293;50.930;3.464;2023-04-24T08:21:53;17.75;;;7.45;;
42682;SDS011;28293;50.930;3.464;2023-04-24T08:24:18;18.35;;;7.40;;
42682;SDS011;28293;50.930;3.464;2023-04-24T08:26:44;15.88;;;6.68;;
42682;SDS011;28293;50.930;3.464;2023-04-24T08:29:10;15.70;;;6.70;;
42682;SDS011;28293;50.930;3.464;2023-04-24T08:31:36;15.60;;;6.80;;
42682;SDS011;28293;50.930;3.464;2023-04-24T08:34:01;15.50;;;6.63;;
42682;SDS011;28293;50.930;3.464;2023-04-24T08:36:27;16.80;;;7.10;;
42682;SDS011;28293;50.930;3.464;2023-04-24T08:38:53;15.23;;;6.97;;
42682;SDS011;28293;50.930;3.464;2023-04-24T08:41:19;17.83;;;7.43;;
42682;SDS011;28293;50.930;3.464;2023-04-24T08:43:47;12.43;;;6.72;;
42682;SDS011;28293;50.930;3.464;2023-04-24T08:46:13;14.50;;;7.05;;
42682;SDS011;28293;50.930;3.464;2023-04-24T08:48:41;13.50;;;7.03;;
42682;SDS011;28293;50.930;3.464;2023-04-24T08:51:07;15.23;;;8.07;;
42682;SDS011;28293;50.930;3.464;2023-04-24T08:53:34;15.40;;;8.23;;
42682;SDS011;28293;50.930;3.464;2023-04-24T08:56:00;17.00;;;7.85;;
42682;SDS011;28293;50.930;3.464;2023-04-24T08:58:27;25.95;;;9.23;;
42682;SDS011;28293;50.930;3.464;2023-04-24T09:00:56;17.35;;;9.63;;
42682;SDS011;28293;50.930;3.464;2023-04-24T09:03:23;20.02;;;10.48;;
42682;SDS011;28293;50.930;3.464;2023-04-24T09:05:53;18.25;;;9.82;;
42682;SDS011;28293;50.930;3.464;2023-04-24T09:08:20;17.92;;;8.95;;
42682;SDS011;28293;50.930;3.464;2023-04-24T09:10:49;18.50;;;9.02;;
42682;SDS011;28293;50.930;3.464;2023-04-24T09:13:15;15.63;;;9.20;;
42682;SDS011;28293;50.930;3.464;2023-04-24T09:15:40;15.20;;;8.77;;
42682;SDS011;28293;50.930;3.464;2023-04-24T09:18:07;18.63;;;9.93;;
42682;SDS011;28293;50.930;3.464;2023-04-24T09:20:33;15.90;;;9.48;;
42682;SDS011;28293;50.930;3.464;2023-04-24T09:23:01;16.55;;;10.27;;
42682;SDS011;28293;50.930;3.464;2023-04-24T09:25:33;16.00;;;10.38;;
42682;SDS011;28293;50.930;3.464;2023-04-24T09:28:03;13.82;;;9.45;;
42682;SDS011;28293;50.930;3.464;2023-04-24T09:30:31;17.15;;;11.05;;
42682;SDS011;28293;50.930;3.464;2023-04-24T09:33:13;18.48;;;9.70;;
42682;SDS011;28293;50.930;3.464;2023-04-24T09:35:50;15.35;;;9.68;;
42682;SDS011;28293;50.930;3.464;2023-04-24T09:38:16;15.55;;;9.40;;
42682;SDS011;28293;50.930;3.464;2023-04-24T09:40:42;17.92;;;10.43;;
42682;SDS011;28293;50.930;3.464;2023-04-24T09:43:10;18.17;;;9.95;;
42682;SDS011;28293;50.930;3.464;2023-04-24T09:45:38;20.80;;;11.50;;
42682;SDS011;28293;50.930;3.464;2023-04-24T09:48:05;14.82;;;10.02;;
42682;SDS011;28293;50.930;3.464;2023-04-24T09:50:35;19.45;;;10.88;;
42682;SDS011;28293;50.930;3.464;2023-04-24T09:53:01;13.95;;;9.70;;
42682;SDS011;28293;50.930;3.464;2023-04-24T09:55:29;15.63;;;10.20;;
42682;SDS011;28293;50.930;3.464;2023-04-24T09:57:58;17.88;;;10.52;;
42682;SDS011;28293;50.930;3.464;2023-04-24T10:00:26;14.77;;;9.68;;
42682;SDS011;28293;50.930;3.464;2023-04-24T10:05:32;15.32;;;9.55;;
42682;SDS011;28293;50.930;3.464;2023-04-24T10:10:30;18.38;;;11.00;;
42682;SDS011;28293;50.930;3.464;2023-04-24T10:12:56;18.30;;;10.25;;
42682;SDS011;28293;50.930;3.464;2023-04-24T10:15:22;17.88;;;10.18;;
42682;SDS011;28293;50.930;3.464;2023-04-24T10:17:50;16.13;;;10.55;;
42682;SDS011;28293;50.930;3.464;2023-04-24T10:20:20;15.73;;;11.13;;
42682;SDS011;28293;50.930;3.464;2023-04-24T10:22:53;15.85;;;10.02;;
42682;SDS011;28293;50.930;3.464;2023-04-24T10:25:20;17.95;;;11.02;;
42682;SDS011;28293;50.930;3.464;2023-04-24T10:27:47;19.30;;;10.93;;
42682;SDS011;28293;50.930;3.464;2023-04-24T10:30:13;18.05;;;11.10;;
42682;SDS011;28293;50.930;3.464;2023-04-24T10:32:40;18.73;;;10.13;;
42682;SDS011;28293;50.930;3.464;2023-04-24T10:35:06;21.33;;;11.10;;
42682;SDS011;28293;50.930;3.464;2023-04-24T10:38:06;17.20;;;10.77;;
42682;SDS011;28293;50.930;3.464;2023-04-24T10:40:31;15.65;;;10.45;;
42682;SDS011;28293;50.930;3.464;2023-04-24T10:42:58;16.92;;;10.73;;
42682;SDS011;28293;50.930;3.464;2023-04-24T10:45:26;18.17;;;9.85;;
42682;SDS011;28293;50.930;3.464;2023-04-24T10:47:53;15.95;;;10.02;;
42682;SDS011;28293;50.930;3.464;2023-04-24T10:50:23;14.77;;;9.40;;
42682;SDS011;28293;50.930;3.464;2023-04-24T10:52:50;15.48;;;9.73;;
42682;SDS011;28293;50.930;3.464;2023-04-24T10:55:38;16.13;;;9.52;;
42682;SDS011;28293;50.930;3.464;2023-04-24T10:58:08;14.93;;;9.30;;
42682;SDS011;28293;50.930;3.464;2023-04-24T11:00:34;17.00;;;9.55;;
42682;SDS011;28293;50.930;3.464;2023-04-24T11:03:03;18.08;;;9.70;;
42682;SDS011;28293;50.930;3.464;2023-04-24T11:06:04;14.52;;;9.07;;
42682;SDS011;28293;50.930;3.464;2023-04-24T11:08:28;15.45;;;9.07;;
42682;SDS011;28293;50.930;3.464;2023-04-24T11:10:57;17.52;;;9.88;;
42682;SDS011;28293;50.930;3.464;2023-04-24T11:14:01;14.63;;;9.07;;
42682;SDS011;28293;50.930;3.464;2023-04-24T11:19:01;13.95;;;7.88;;
42682;SDS011;28293;50.930;3.464;2023-04-24T11:22:01;14.75;;;8.38;;
42682;SDS011;28293;50.930;3.464;2023-04-24T11:29:38;12.63;;;7.53;;
42682;SDS011;28293;50.930;3.464;2023-04-24T11:34:53;11.88;;;7.32;;
42682;SDS011;28293;50.930;3.464;2023-04-24T11:37:21;13.65;;;6.20;;
42682;SDS011;28293;50.930;3.464;2023-04-24T11:40:12;12.43;;;7.00;;
42682;SDS011;28293;50.930;3.464;2023-04-24T11:42:41;11.60;;;6.53;;
42682;SDS011;28293;50.930;3.464;2023-04-24T11:47:46;9.90;;;6.07;;
42682;SDS011;28293;50.930;3.464;2023-04-24T11:50:12;11.52;;;5.65;;
42682;SDS011;28293;50.930;3.464;2023-04-24T11:52:43;11.65;;;6.07;;
42682;SDS011;28293;50.930;3.464;2023-04-24T11:57:39;14.00;;;6.38;;
42682;SDS011;28293;50.930;3.464;2023-04-24T12:00:14;11.95;;;5.70;;
42682;SDS011;28293;50.930;3.464;2023-04-24T12:02:45;11.38;;;5.90;;
42682;SDS011;28293;50.930;3.464;2023-04-24T12:07:46;10.70;;;5.82;;
42682;SDS011;28293;50.930;3.464;2023-04-24T12:10:12;11.98;;;6.00;;
42682;SDS011;28293;50.930;3.464;2023-04-24T12:12:38;10.05;;;5.60;;
42682;SDS011;28293;50.930;3.464;2023-04-24T12:15:07;13.77;;;6.20;;
42682;SDS011;28293;50.930;3.464;2023-04-24T12:17:34;10.35;;;5.80;;
42682;SDS011;28293;50.930;3.464;2023-04-24T12:20:03;12.68;;;6.18;;
42682;SDS011;28293;50.930;3.464;2023-04-24T12:25:31;10.32;;;5.57;;
42682;SDS011;28293;50.930;3.464;2023-04-24T12:30:48;10.60;;;4.85;;
42682;SDS011;28293;50.930;3.464;2023-04-24T12:33:20;9.38;;;4.93;;
42682;SDS011;28293;50.930;3.464;2023-04-24T12:35:47;13.48;;;5.72;;
42682;SDS011;28293;50.930;3.464;2023-04-24T12:38:16;9.85;;;4.95;;
42682;SDS011;28293;50.930;3.464;2023-04-24T12:40:46;10.05;;;5.07;;
42682;SDS011;28293;50.930;3.464;2023-04-24T12:43:16;11.82;;;4.82;;
42682;SDS011;28293;50.930;3.464;2023-04-24T12:45:43;9.90;;;5.13;;
42682;SDS011;28293;50.930;3.464;2023-04-24T12:48:12;8.77;;;4.45;;
42682;SDS011;28293;50.930;3.464;2023-04-24T12:50:41;9.27;;;4.75;;
42682;SDS011;28293;50.930;3.464;2023-04-24T12:53:08;10.60;;;4.72;;
42682;SDS011;28293;50.930;3.464;2023-04-24T12:55:34;9.55;;;5.03;;
42682;SDS011;28293;50.930;3.464;2023-04-24T12:58:00;8.73;;;4.32;;
42682;SDS011;28293;50.930;3.464;2023-04-24T13:00:27;8.43;;;4.00;;
42682;SDS011;28293;50.930;3.464;2023-04-24T13:02:53;8.25;;;4.38;;
42682;SDS011;28293;50.930;3.464;2023-04-24T13:05:19;11.13;;;4.25;;
42682;SDS011;28293;50.930;3.464;2023-04-24T13:07:45;7.72;;;3.70;;
42682;SDS011;28293;50.930;3.464;2023-04-24T13:10:11;8.85;;;4.50;;
42682;SDS011;28293;50.930;3.464;2023-04-24T13:12:38;8.07;;;4.20;;
42682;SDS011;28293;50.930;3.464;2023-04-24T13:15:04;7.68;;;3.17;;
42682;SDS011;28293;50.930;3.464;2023-04-24T13:17:30;10.23;;;3.80;;
42682;SDS011;28293;50.930;3.464;2023-04-24T13:19:56;5.97;;;2.75;;
42682;SDS011;28293;50.930;3.464;2023-04-24T13:22:22;6.70;;;2.97;;
42682;SDS011;28293;50.930;3.464;2023-04-24T13:24:47;6.50;;;3.13;;
42682;SDS011;28293;50.930;3.464;2023-04-24T13:27:16;6.72;;;2.80;;
42682;SDS011;28293;50.930;3.464;2023-04-24T13:29:42;9.55;;;2.90;;
42682;SDS011;28293;50.930;3.464;2023-04-24T13:32:08;6.35;;;2.67;;
42682;SDS011;28293;50.930;3.464;2023-04-24T13:34:34;7.00;;;2.95;;
42682;SDS011;28293;50.930;3.464;2023-04-24T13:37:00;6.65;;;3.00;;
42682;SDS011;28293;50.930;3.464;2023-04-24T13:39:26;5.80;;;2.70;;
42682;SDS011;28293;50.930;3.464;2023-04-24T13:41:52;4.20;;;2.35;;
42682;SDS011;28293;50.930;3.464;2023-04-24T13:44:19;6.53;;;2.70;;
42682;SDS011;28293;50.930;3.464;2023-04-24T13:46:46;8.52;;;3.15;;
42682;SDS011;28293;50.930;3.464;2023-04-24T13:49:13;5.93;;;2.40;;
42682;SDS011;28293;50.930;3.464;2023-04-24T13:51:39;4.13;;;2.30;;
42682;SDS011;28293;50.930;3.464;2023-04-24T13:54:05;6.57;;;2.30;;
42682;SDS011;28293;50.930;3.464;2023-04-24T13:56:32;5.10;;;2.40;;
42682;SDS011;28293;50.930;3.464;2023-04-24T13:58:57;5.38;;;2.88;;
42682;SDS011;28293;50.930;3.464;2023-04-24T14:01:23;6.13;;;2.17;;
42682;SDS011;28293;50.930;3.464;2023-04-24T14:03:50;3.75;;;2.15;;
42682;SDS011;28293;50.930;3.464;2023-04-24T14:06:17;8.43;;;2.65;;
42682;SDS011;28293;50.930;3.464;2023-04-24T14:08:43;6.95;;;2.80;;
42682;SDS011;28293;50.930;3.464;2023-04-24T14:11:09;6.18;;;2.47;;
42682;SDS011;28293;50.930;3.464;2023-04-24T14:13:36;7.72;;;2.78;;
42682;SDS011;28293;50.930;3.464;2023-04-24T14:16:03;5.95;;;2.30;;
42682;SDS011;28293;50.930;3.464;2023-04-24T14:18:29;5.10;;;2.63;;
42682;SDS011;28293;50.930;3.464;2023-04-24T14:20:55;6.55;;;2.72;;
42682;SDS011;28293;50.930;3.464;2023-04-24T14:23:21;5.07;;;2.47;;
42682;SDS011;28293;50.930;3.464;2023-04-24T14:25:46;7.00;;;2.55;;
42682;SDS011;28293;50.930;3.464;2023-04-24T14:28:16;5.68;;;2.75;;
42682;SDS011;28293;50.930;3.464;2023-04-24T14:30:43;6.40;;;2.67;;
42682;SDS011;28293;50.930;3.464;2023-04-24T14:33:09;6.85;;;2.60;;
42682;SDS011;28293;50.930;3.464;2023-04-24T14:35:35;6.72;;;2.60;;
42682;SDS011;28293;50.930;3.464;2023-04-24T14:38:01;7.28;;;3.33;;
42682;SDS011;28293;50.930;3.464;2023-04-24T14:40:27;5.00;;;2.38;;
42682;SDS011;28293;50.930;3.464;2023-04-24T14:42:53;7.65;;;3.13;;
42682;SDS011;28293;50.930;3.464;2023-04-24T14:45:20;8.38;;;3.42;;
42682;SDS011;28293;50.930;3.464;2023-04-24T14:47:46;6.78;;;3.17;;
42682;SDS011;28293;50.930;3.464;2023-04-24T14:50:12;6.72;;;2.72;;
42682;SDS011;28293;50.930;3.464;2023-04-24T14:52:38;6.50;;;3.05;;
42682;SDS011;28293;50.930;3.464;2023-04-24T14:55:04;6.63;;;2.70;;
42682;SDS011;28293;50.930;3.464;2023-04-24T14:57:32;6.65;;;3.47;;
42682;SDS011;28293;50.930;3.464;2023-04-24T14:59:58;7.28;;;3.05;;